METAR Data
IDs: Format: Raw Decoded Include TAF

Data at: 0922 UTC 13 Aug 2022

EPKK 130900Z 03007KT 9999 BKN006 OVC013 19/18 Q1016